createdAt,value
2019-05-25T00:02:12.142Z,2.37
2019-05-25T00:04:47.271Z,2.12
2019-05-25T00:07:16.858Z,2.57
2019-05-25T00:09:48.441Z,3.60
2019-05-25T00:12:17.940Z,2.43
2019-05-25T00:14:47.448Z,2.10
2019-05-25T00:18:04.407Z,2.23
2019-05-25T00:19:48.915Z,2.07
2019-05-25T00:22:19.902Z,2.03
2019-05-25T00:24:50.179Z,1.90
2019-05-25T00:27:19.438Z,1.93
2019-05-25T00:29:49.074Z,3.40
2019-05-25T00:32:18.333Z,1.53
2019-05-25T00:34:47.650Z,2.03
2019-05-25T00:37:17.349Z,2.30
2019-05-25T00:39:48.956Z,2.37
2019-05-25T00:42:18.826Z,3.53
2019-05-25T00:44:49.562Z,3.53
2019-05-25T00:47:36.090Z,3.13
2019-05-25T00:50:06.144Z,3.20
2019-05-25T00:52:37.134Z,2.00
2019-05-25T00:55:11.184Z,2.87
2019-05-25T00:57:40.828Z,2.70
2019-05-25T01:00:10.610Z,2.63
2019-05-25T01:02:41.133Z,6.00
2019-05-25T01:05:12.051Z,2.70
2019-05-25T01:07:48.538Z,2.37
2019-05-25T01:10:18.195Z,2.60
2019-05-25T01:12:47.467Z,2.70
2019-05-25T01:15:18.499Z,2.40
2019-05-25T01:17:51.642Z,3.13
2019-05-25T01:20:21.102Z,3.27
2019-05-25T01:22:50.375Z,3.10
2019-05-25T01:25:20.506Z,4.33
2019-05-25T01:27:50.694Z,4.63
2019-05-25T01:30:21.566Z,2.50
2019-05-25T01:32:50.797Z,2.43
2019-05-25T01:35:20.673Z,3.43
2019-05-25T01:37:49.932Z,4.50
2019-05-25T01:40:20.118Z,2.47
2019-05-25T01:42:51.248Z,3.00
2019-05-25T01:45:34.964Z,3.40
2019-05-25T01:48:04.201Z,3.63
2019-05-25T01:53:25.181Z,2.47
2019-05-25T01:55:54.805Z,2.50
2019-05-25T01:58:25.549Z,4.30
2019-05-25T02:00:59.527Z,6.77
2019-05-25T02:03:28.793Z,4.43
2019-05-25T02:06:00.377Z,5.57
2019-05-25T02:08:33.456Z,2.50
2019-05-25T02:11:04.625Z,2.57
2019-05-25T02:13:33.922Z,3.33
2019-05-25T02:16:24.129Z,2.93
2019-05-25T02:18:53.382Z,4.53
2019-05-25T02:21:30.129Z,3.50
2019-05-25T02:23:59.415Z,4.47
2019-05-25T02:26:31.370Z,4.47
2019-05-25T02:29:04.596Z,4.27
2019-05-25T02:31:33.885Z,3.00
2019-05-25T02:34:03.147Z,2.73
2019-05-25T02:36:35.922Z,4.37
2019-05-25T02:39:09.035Z,3.30
2019-05-25T02:41:38.657Z,3.87
2019-05-25T02:44:07.931Z,3.93
2019-05-25T02:46:37.200Z,4.90
2019-05-25T02:49:24.507Z,3.73
2019-05-25T02:51:53.825Z,4.23
2019-05-25T02:54:38.478Z,3.17
2019-05-25T02:57:09.609Z,5.20
2019-05-25T02:59:38.867Z,5.20
2019-05-25T03:02:08.190Z,5.17
2019-05-25T03:04:37.418Z,4.60
2019-05-25T03:07:07.893Z,3.13
2019-05-25T03:09:38.723Z,7.97
2019-05-25T03:12:07.986Z,7.33
2019-05-25T03:14:37.271Z,5.40
2019-05-25T03:17:06.518Z,3.27
2019-05-25T03:19:35.798Z,3.53
2019-05-25T03:22:05.035Z,3.83
2019-05-25T03:24:42.386Z,4.23
2019-05-25T03:27:11.663Z,4.23
2019-05-25T03:29:47.085Z,5.90
2019-05-25T03:32:19.691Z,5.00
2019-05-25T03:34:49.337Z,4.70
2019-05-25T03:37:18.609Z,4.77
2019-05-25T03:39:47.844Z,4.03
2019-05-25T03:42:17.147Z,5.30
2019-05-25T03:44:46.416Z,4.50
2019-05-25T03:47:15.689Z,5.27
2019-05-25T03:49:44.959Z,6.30
2019-05-25T03:52:14.206Z,6.77
2019-05-25T03:54:43.456Z,4.07
2019-05-25T03:57:12.711Z,3.73
2019-05-25T03:59:41.971Z,4.10
2019-05-25T04:02:17.503Z,5.97
2019-05-25T04:04:46.742Z,7.90
2019-05-25T04:07:16.010Z,6.37
2019-05-25T04:09:46.149Z,5.33
2019-05-25T04:12:15.391Z,4.60
2019-05-25T04:14:44.609Z,4.40
2019-05-25T04:17:13.898Z,4.10
2019-05-25T04:19:43.137Z,4.37
2019-05-25T04:22:17.452Z,4.83
2019-05-25T04:24:46.703Z,4.43
2019-05-25T04:27:34.654Z,4.27
2019-05-25T04:30:03.982Z,6.57
2019-05-25T04:32:36.909Z,4.47
2019-05-25T04:35:06.503Z,6.93
2019-05-25T04:37:35.763Z,5.83
2019-05-25T04:40:08.137Z,7.37
2019-05-25T04:42:37.776Z,4.57
2019-05-25T04:45:09.309Z,6.23
2019-05-25T04:47:38.574Z,4.27
2019-05-25T04:50:08.005Z,4.70
2019-05-25T04:52:40.858Z,6.07
2019-05-25T04:55:08.423Z,4.43
2019-05-25T04:57:54.941Z,5.40
2019-05-25T05:00:24.186Z,5.00
2019-05-25T05:02:53.430Z,5.33
2019-05-25T05:05:23.004Z,4.80
2019-05-25T05:08:11.392Z,4.47
2019-05-25T05:10:40.940Z,6.20
2019-05-25T05:13:13.692Z,4.87
2019-05-25T05:15:42.951Z,6.17
2019-05-25T05:18:12.179Z,5.80
2019-05-25T05:20:41.412Z,5.30
2019-05-25T05:23:10.671Z,6.60
2019-05-25T05:25:40.281Z,7.37
2019-05-25T05:28:10.212Z,6.93
2019-05-25T05:30:47.254Z,6.27
2019-05-25T05:33:16.525Z,9.27
2019-05-25T05:35:49.118Z,9.60
2019-05-25T05:38:20.473Z,6.87
2019-05-25T05:40:50.048Z,8.70
2019-05-25T05:43:21.155Z,9.80
2019-05-25T05:45:52.384Z,7.77
2019-05-25T05:48:25.155Z,8.87
2019-05-25T05:50:56.572Z,10.17
2019-05-25T05:53:26.630Z,11.83
2019-05-25T05:55:55.914Z,9.70
2019-05-25T05:58:25.162Z,6.83
2019-05-25T06:00:55.033Z,11.87
2019-05-25T06:03:24.286Z,9.53
2019-05-25T06:05:54.354Z,10.90
2019-05-25T06:08:25.213Z,12.53
2019-05-25T06:10:54.445Z,8.87
2019-05-25T06:13:23.714Z,10.77
2019-05-25T06:15:55.874Z,12.10
2019-05-25T06:18:23.946Z,10.77
2019-05-25T06:21:15.611Z,11.03
2019-05-25T06:23:51.094Z,11.57
2019-05-25T06:26:20.749Z,8.70
2019-05-25T06:28:50.982Z,11.37
2019-05-25T06:31:24.241Z,10.57
2019-05-25T06:33:54.684Z,10.67
2019-05-25T06:36:46.054Z,12.70
2019-05-25T06:39:15.306Z,12.25
2019-05-25T06:41:44.620Z,9.80
2019-05-25T06:44:13.892Z,13.50
2019-05-25T06:46:43.162Z,11.70
2019-05-25T06:49:36.006Z,13.30
2019-05-25T06:51:44.594Z,10.20
2019-05-25T06:54:13.856Z,13.70
2019-05-25T06:56:43.141Z,11.63
2019-05-25T06:59:12.419Z,11.67
2019-05-25T07:01:41.699Z,12.93
2019-05-25T07:04:10.940Z,12.07
2019-05-25T07:06:40.230Z,13.13
2019-05-25T07:09:09.519Z,11.63
2019-05-25T07:11:38.783Z,11.87
2019-05-25T07:14:08.543Z,10.93
2019-05-25T07:16:38.790Z,10.93
2019-05-25T07:19:08.071Z,13.27
2019-05-25T07:21:37.425Z,13.07
2019-05-25T07:24:06.722Z,11.90
2019-05-25T07:26:43.163Z,12.13
2019-05-25T07:29:18.531Z,12.17
2019-05-25T07:31:47.858Z,11.83
2019-05-25T07:34:17.914Z,12.23
2019-05-25T07:37:00.595Z,11.80
2019-05-25T07:39:29.859Z,13.20
2019-05-25T07:41:59.110Z,13.57
2019-05-25T07:44:28.410Z,15.70
2019-05-25T07:47:05.183Z,12.80
2019-05-25T07:49:34.476Z,10.63
2019-05-25T07:52:07.170Z,10.47
2019-05-25T07:54:36.456Z,14.47
2019-05-25T07:57:05.755Z,10.73
2019-05-25T07:59:35.026Z,13.57
2019-05-25T08:02:10.447Z,11.50
2019-05-25T08:04:41.507Z,9.47
2019-05-25T08:07:10.844Z,10.87
2019-05-25T08:09:40.142Z,11.53
2019-05-25T08:12:09.417Z,13.77
2019-05-25T08:14:38.803Z,11.17
2019-05-25T08:17:11.173Z,9.17
2019-05-25T08:19:40.448Z,10.50
2019-05-25T08:22:10.097Z,9.80
2019-05-25T08:25:00.219Z,7.47
2019-05-25T08:27:29.504Z,11.07
2019-05-25T08:29:58.825Z,10.93
2019-05-25T08:32:32.357Z,9.97
2019-05-25T08:35:02.001Z,14.73
2019-05-25T08:37:40.238Z,15.07
2019-05-25T08:40:27.820Z,15.10
2019-05-25T08:42:57.090Z,13.63
2019-05-25T08:45:37.122Z,14.50
2019-05-25T08:48:06.751Z,14.97
2019-05-25T08:50:38.804Z,15.63
2019-05-25T08:53:08.367Z,12.90
2019-05-25T08:55:37.674Z,15.43
2019-05-25T08:58:07.011Z,14.73
2019-05-25T09:00:36.327Z,15.83
2019-05-25T09:03:05.622Z,15.10
2019-05-25T09:08:12.809Z,14.60
2019-05-25T09:10:45.125Z,13.20
2019-05-25T09:13:38.370Z,12.83
2019-05-25T09:16:07.623Z,16.03
2019-05-25T09:18:36.914Z,13.67
2019-05-25T09:21:06.191Z,14.40
2019-05-25T09:23:35.799Z,13.60
2019-05-25T09:26:05.932Z,15.33
2019-05-25T09:28:36.226Z,13.67
2019-05-25T09:31:05.560Z,17.60
2019-05-25T09:33:36.654Z,13.17
2019-05-25T09:36:05.967Z,13.67
2019-05-25T09:38:43.325Z,12.70
2019-05-25T09:41:20.185Z,13.13
2019-05-25T09:43:49.668Z,13.87
2019-05-25T09:46:19.058Z,12.70
2019-05-25T09:48:48.383Z,13.60
2019-05-25T09:51:19.491Z,12.40
2019-05-25T09:53:56.410Z,11.87
2019-05-25T09:56:28.897Z,12.83
2019-05-25T09:58:58.201Z,13.03
2019-05-25T10:01:29.219Z,13.73
2019-05-25T10:04:09.021Z,11.60
2019-05-25T10:06:38.302Z,11.30
2019-05-25T10:09:14.183Z,15.20
2019-05-25T10:11:46.026Z,13.97
2019-05-25T10:14:15.343Z,13.83
2019-05-25T10:16:46.819Z,12.87
2019-05-25T10:19:17.716Z,12.70
2019-05-25T10:21:49.994Z,14.13
2019-05-25T10:24:19.021Z,15.20
2019-05-25T10:26:48.318Z,14.07
2019-05-25T10:29:18.444Z,12.83
2019-05-25T10:31:47.696Z,13.30
2019-05-25T10:34:17.054Z,14.97
2019-05-25T10:36:46.371Z,10.70
2019-05-25T10:39:17.127Z,13.33
2019-05-25T10:41:46.408Z,15.30
2019-05-25T10:44:15.730Z,13.20
2019-05-25T10:46:44.994Z,12.73
2019-05-25T10:49:14.323Z,12.10
2019-05-25T10:51:43.705Z,13.73
2019-05-25T10:54:13.593Z,14.03
2019-05-25T10:56:42.886Z,14.33
2019-05-25T10:59:12.183Z,13.90
2019-05-25T11:01:41.494Z,13.67
2019-05-25T11:04:12.715Z,11.73
2019-05-25T11:06:43.987Z,14.40
2019-05-25T11:09:13.247Z,14.73
2019-05-25T11:11:42.575Z,14.00
2019-05-25T11:14:15.462Z,12.53
2019-05-25T11:16:44.859Z,14.17
2019-05-25T11:19:35.204Z,13.47
2019-05-25T11:22:05.129Z,12.50
2019-05-25T11:24:34.515Z,14.23
2019-05-25T11:27:05.643Z,12.40
2019-05-25T11:29:34.951Z,14.43
2019-05-25T11:32:05.753Z,11.70
2019-05-25T11:34:35.266Z,13.37
2019-05-25T11:37:04.721Z,11.03
2019-05-25T11:39:34.052Z,12.57
2019-05-25T11:42:03.596Z,10.07
2019-05-25T11:44:36.598Z,10.53
2019-05-25T11:47:05.878Z,11.80
2019-05-25T11:49:35.990Z,11.23
2019-05-25T11:52:23.162Z,11.37
2019-05-25T11:54:52.520Z,12.17
2019-05-25T11:57:23.133Z,12.27
2019-05-25T11:59:55.125Z,11.23
2019-05-25T12:02:24.782Z,10.23
2019-05-25T12:04:54.073Z,9.60
2019-05-25T12:07:23.380Z,10.33
2019-05-25T12:09:52.681Z,9.00
2019-05-25T12:12:21.994Z,10.43
2019-05-25T12:14:52.648Z,12.07
2019-05-25T12:17:22.035Z,12.83
2019-05-25T12:20:08.653Z,10.10
2019-05-25T12:22:45.594Z,10.47
2019-05-25T12:25:19.587Z,12.33
2019-05-25T12:27:49.793Z,8.97
2019-05-25T12:30:19.460Z,11.03
2019-05-25T12:32:48.728Z,11.43
2019-05-25T12:35:23.360Z,12.47
2019-05-25T12:37:52.721Z,10.77
2019-05-25T12:40:22.497Z,11.90
2019-05-25T12:42:51.770Z,12.83
2019-05-25T12:45:21.525Z,12.73
2019-05-25T12:47:50.877Z,13.07
2019-05-25T12:50:21.384Z,12.77
2019-05-25T12:52:52.234Z,11.17
2019-05-25T12:55:22.048Z,10.53
2019-05-25T12:57:52.210Z,11.53
2019-05-25T13:00:32.091Z,11.43
2019-05-25T13:02:53.553Z,12.27
2019-05-25T13:05:33.496Z,12.13
2019-05-25T13:07:53.883Z,12.63
2019-05-25T13:10:23.278Z,13.50
2019-05-25T13:12:52.573Z,11.40
2019-05-25T13:17:57.535Z,11.20
2019-05-25T13:20:27.851Z,13.47
2019-05-25T13:23:01.432Z,10.13
2019-05-25T13:25:30.678Z,11.17
2019-05-25T13:28:00.012Z,10.17
2019-05-25T13:33:19.708Z,9.73
2019-05-25T13:35:49.014Z,8.03
2019-05-25T13:38:28.694Z,9.77
2019-05-25T13:41:05.197Z,8.07
2019-05-25T13:43:34.823Z,7.63
2019-05-25T13:46:05.774Z,7.57
2019-05-25T13:48:35.060Z,8.07
2019-05-25T13:51:04.361Z,7.77
2019-05-25T13:53:33.680Z,8.13
2019-05-25T13:56:06.615Z,8.03
2019-05-25T13:58:43.196Z,6.83
2019-05-25T14:01:28.085Z,7.13
2019-05-25T14:03:49.761Z,6.73
2019-05-25T14:06:19.051Z,7.13
2019-05-25T14:08:48.434Z,4.60
2019-05-25T14:11:17.703Z,7.50
2019-05-25T14:13:48.992Z,7.00
2019-05-25T14:16:18.240Z,5.13
2019-05-25T14:18:47.534Z,5.17
2019-05-25T14:21:16.826Z,5.27
2019-05-25T14:23:46.510Z,5.33
2019-05-25T14:26:15.849Z,5.93
2019-05-25T14:29:00.422Z,6.60
2019-05-25T14:31:44.922Z,9.17
2019-05-25T14:34:06.718Z,5.07
2019-05-25T14:36:35.979Z,5.20
2019-05-25T14:39:29.141Z,3.33
2019-05-25T14:42:09.475Z,4.67
2019-05-25T14:44:38.715Z,4.87
2019-05-25T14:47:07.991Z,4.22
2019-05-25T14:49:44.598Z,3.93
2019-05-25T14:52:13.911Z,4.97
2019-05-25T14:54:43.273Z,4.13
2019-05-25T14:57:12.624Z,3.23
2019-05-25T14:59:44.404Z,4.23
2019-05-25T15:02:25.695Z,4.87
2019-05-25T15:04:54.982Z,4.07
2019-05-25T15:07:24.266Z,5.53
2019-05-25T15:09:57.374Z,3.50
2019-05-25T15:12:27.554Z,5.03
2019-05-25T15:14:56.807Z,2.60
2019-05-25T15:17:26.130Z,4.63
2019-05-25T15:19:55.435Z,4.60
2019-05-25T15:22:32.680Z,3.37
2019-05-25T15:25:02.530Z,4.07
2019-05-25T15:27:35.263Z,6.33
2019-05-25T15:30:04.952Z,5.08
2019-05-25T15:32:34.322Z,6.43
2019-05-25T15:35:04.515Z,5.23
2019-05-25T15:37:34.235Z,5.83
2019-05-25T15:40:22.659Z,2.77
2019-05-25T15:42:59.269Z,3.10
2019-05-25T15:45:28.569Z,4.23
2019-05-25T15:48:16.997Z,3.53
2019-05-25T15:50:46.355Z,4.70
2019-05-25T15:53:39.218Z,4.77
2019-05-25T15:56:08.493Z,3.70
2019-05-25T15:58:43.156Z,3.43
2019-05-25T16:01:12.529Z,4.13
2019-05-25T16:03:41.832Z,4.57
2019-05-25T16:06:11.101Z,5.70
2019-05-25T16:08:40.429Z,4.30
2019-05-25T16:11:10.894Z,5.33
2019-05-25T16:13:46.970Z,4.47
2019-05-25T16:16:17.286Z,5.93
2019-05-25T16:18:54.716Z,3.97
2019-05-25T16:21:24.967Z,3.70
2019-05-25T16:23:54.247Z,14.63
2019-05-25T16:26:23.994Z,6.07
2019-05-25T16:28:56.041Z,8.53
2019-05-25T16:31:25.352Z,6.07
2019-05-25T16:33:54.617Z,4.90
2019-05-25T16:36:23.910Z,7.47
2019-05-25T16:38:53.249Z,3.77
2019-05-25T16:41:27.190Z,8.63
2019-05-25T16:43:56.517Z,4.83
2019-05-25T16:46:27.783Z,4.40
2019-05-25T16:48:59.934Z,4.87
2019-05-25T16:51:29.511Z,7.33
2019-05-25T16:53:58.795Z,5.87
2019-05-25T16:56:31.614Z,11.30
2019-05-25T16:59:01.986Z,13.07
2019-05-25T17:01:46.888Z,5.23
2019-05-25T17:04:02.790Z,19.30
2019-05-25T17:06:32.044Z,8.50
2019-05-25T17:09:02.272Z,6.40
2019-05-25T17:11:31.634Z,7.00
2019-05-25T17:14:01.314Z,10.83
2019-05-25T17:16:31.489Z,4.90
2019-05-25T17:19:00.818Z,8.20
2019-05-25T17:21:30.099Z,8.20
2019-05-25T17:23:59.363Z,10.53
2019-05-25T17:26:28.709Z,6.20
2019-05-25T17:28:57.990Z,12.17
2019-05-25T17:31:27.264Z,7.70
2019-05-25T17:33:56.540Z,8.10
2019-05-25T17:36:25.836Z,7.07
2019-05-25T17:39:13.300Z,14.37
2019-05-25T17:42:01.797Z,6.10
2019-05-25T17:44:43.626Z,11.33
2019-05-25T17:47:28.751Z,5.43
2019-05-25T17:49:58.434Z,7.40
2019-05-25T17:52:31.582Z,6.27
2019-05-25T17:55:00.867Z,10.07
2019-05-25T17:57:30.169Z,7.00
2019-05-25T18:00:02.492Z,8.37
2019-05-25T18:02:32.170Z,6.37
2019-05-25T18:05:01.469Z,7.83
2019-05-25T18:07:30.759Z,10.07
2019-05-25T18:10:00.035Z,6.53
2019-05-25T18:12:35.136Z,7.67
2019-05-25T18:15:01.811Z,6.00
2019-05-25T18:17:34.360Z,6.70
2019-05-25T18:20:04.195Z,6.67
2019-05-25T18:22:33.509Z,8.97
2019-05-25T18:25:05.788Z,7.90
2019-05-25T18:27:35.112Z,6.77
2019-05-25T18:30:05.555Z,6.23
2019-05-25T18:32:47.048Z,7.87
2019-05-25T18:35:20.008Z,10.30
2019-05-25T18:37:50.790Z,8.03
2019-05-25T18:40:20.925Z,9.10
2019-05-25T18:42:50.294Z,10.30
2019-05-25T18:45:19.629Z,7.33
2019-05-25T18:50:27.817Z,7.50
2019-05-25T18:55:45.523Z,9.27
2019-05-25T18:58:17.963Z,8.33
2019-05-25T19:00:48.839Z,8.23
2019-05-25T19:03:18.159Z,8.67
2019-05-25T19:05:47.550Z,6.70
2019-05-25T19:08:16.895Z,7.83
2019-05-25T19:10:46.186Z,7.33
2019-05-25T19:13:16.579Z,9.10
2019-05-25T19:15:46.984Z,9.03
2019-05-25T19:18:44.250Z,15.07
2019-05-25T19:21:35.975Z,14.73
2019-05-25T19:24:05.455Z,11.03
2019-05-25T19:26:40.908Z,7.70
2019-05-25T19:29:52.425Z,9.17
2019-05-25T19:31:37.308Z,7.93
2019-05-25T19:34:06.574Z,8.57
2019-05-25T19:36:38.314Z,5.57
2019-05-25T19:39:09.639Z,5.83
2019-05-25T19:41:40.589Z,6.27
2019-05-25T19:44:09.891Z,9.00
2019-05-25T19:46:43.406Z,5.47
2019-05-25T19:49:13.013Z,7.17
2019-05-25T19:51:42.293Z,7.37
2019-05-25T19:54:11.610Z,8.63
2019-05-25T19:56:40.969Z,7.00
2019-05-25T19:59:10.387Z,6.37
2019-05-25T20:01:58.720Z,6.73
2019-05-25T20:04:28.096Z,5.93
2019-05-25T20:06:57.412Z,7.60
2019-05-25T20:09:26.719Z,11.47
2019-05-25T20:11:59.607Z,5.77
2019-05-25T20:14:39.437Z,7.00
2019-05-25T20:16:59.918Z,8.47
2019-05-25T20:19:29.252Z,6.47
2019-05-25T20:21:59.850Z,6.67
2019-05-25T20:24:29.162Z,6.33
2019-05-25T20:27:01.584Z,6.53
2019-05-25T20:29:29.463Z,9.70
2019-05-25T20:32:00.998Z,8.60
2019-05-25T20:34:30.355Z,5.80
2019-05-25T20:36:59.685Z,7.73
2019-05-25T20:39:29.071Z,5.97
2019-05-25T20:41:59.188Z,6.50
2019-05-25T20:44:28.480Z,7.50
2019-05-25T20:47:11.392Z,6.13
2019-05-25T20:49:40.723Z,5.37
2019-05-25T20:52:10.067Z,7.53
2019-05-25T20:54:39.376Z,5.70
2019-05-25T20:57:08.704Z,6.33
2019-05-25T20:59:38.013Z,12.23
2019-05-25T21:02:07.326Z,7.70
2019-05-25T21:07:23.880Z,6.07
2019-05-25T21:09:53.170Z,7.33
2019-05-25T21:15:12.768Z,16.60
2019-05-25T21:17:42.093Z,9.08
2019-05-25T21:20:12.013Z,6.90
2019-05-25T21:22:41.762Z,6.40
2019-05-25T21:27:52.727Z,6.40
2019-05-25T21:30:22.124Z,6.60
2019-05-25T21:32:51.428Z,6.50
2019-05-25T21:35:20.738Z,8.00
2019-05-25T21:37:51.214Z,7.23
2019-05-25T21:40:20.814Z,6.20
2019-05-25T21:42:52.102Z,7.97
2019-05-25T21:45:21.882Z,6.10
2019-05-25T21:47:57.156Z,8.17
2019-05-25T21:50:22.203Z,7.93
2019-05-25T21:52:55.124Z,10.50
2019-05-25T21:55:24.436Z,6.27
2019-05-25T21:57:56.712Z,9.57
2019-05-25T22:00:27.974Z,6.33
2019-05-25T22:02:57.242Z,7.87
2019-05-25T22:05:26.515Z,8.20
2019-05-25T22:07:55.783Z,6.30
2019-05-25T22:11:11.752Z,7.47
2019-05-25T22:12:56.066Z,8.83
2019-05-25T22:18:16.436Z,7.67
2019-05-25T22:20:45.704Z,7.10
2019-05-25T22:23:15.331Z,9.73
2019-05-25T22:25:45.073Z,10.43
2019-05-25T22:28:14.339Z,8.60
2019-05-25T22:30:44.611Z,8.40
2019-05-25T22:33:13.893Z,6.77
2019-05-25T22:35:43.264Z,8.20
2019-05-25T22:38:12.554Z,6.63
2019-05-25T22:41:02.257Z,9.43
2019-05-25T22:43:31.541Z,6.30
2019-05-25T22:46:16.272Z,8.30
2019-05-25T22:48:47.080Z,7.77
2019-05-25T22:51:16.745Z,9.43
2019-05-25T22:53:46.403Z,8.93
2019-05-25T22:56:19.753Z,7.80
2019-05-25T22:58:49.007Z,7.20
2019-05-25T23:01:18.339Z,7.70
2019-05-25T23:03:47.644Z,9.03
2019-05-25T23:06:34.184Z,8.30
2019-05-25T23:09:03.871Z,7.33
2019-05-25T23:11:33.937Z,8.70
2019-05-25T23:14:03.414Z,7.17
2019-05-25T23:16:37.220Z,8.83
2019-05-25T23:19:06.519Z,6.90
2019-05-25T23:21:35.750Z,7.30
2019-05-25T23:24:10.934Z,14.73
2019-05-25T23:26:41.053Z,20.27
2019-05-25T23:29:12.211Z,13.13
2019-05-25T23:31:44.814Z,13.13
2019-05-25T23:34:15.549Z,23.00
2019-05-25T23:36:44.894Z,14.50
2019-05-25T23:39:14.186Z,10.53
2019-05-25T23:41:43.471Z,9.80
2019-05-25T23:44:12.743Z,10.33
2019-05-25T23:46:56.441Z,8.80
2019-05-25T23:49:13.492Z,8.50
2019-05-25T23:51:42.730Z,7.97
2019-05-25T23:54:12.323Z,8.93
2019-05-25T23:56:41.618Z,8.97
2019-05-25T23:59:12.832Z,9.10
